Time;durP1;ratioP1;P1;durP2;ratioP2;P2;SDS_P1;SDS_P2;PMS_P1;PMS_P2;Temp;Humidity;BMP_temperature;BMP_pressure;BME280_temperature;BME280_humidity;BME280_pressure;Samples;Min_cycle;Max_cycle;Signal;HPM_P1;HPM_P2
2021/01/04 00:00:58;;;;;;;7.47;2.50;;;5.50;87.80;;;;;;5029375;28;20018;-77
2021/01/04 00:03:38;;;;;;;5.95;2.55;;;5.50;87.90;;;;;;5023064;28;20022;-78
2021/01/04 00:06:25;;;;;;;10.00;2.97;;;5.50;87.90;;;;;;5020452;28;20018;-77
2021/01/04 00:09:00;;;;;;;3.05;1.73;;;5.50;88.00;;;;;;5012553;28;20025;-77
2021/01/04 00:11:46;;;;;;;7.03;2.58;;;5.50;88.00;;;;;;5012494;28;20021;-78
2021/01/04 00:14:40;;;;;;;5.70;2.13;;;5.50;88.00;;;;;;5011538;28;20160;-80
2021/01/04 00:17:37;;;;;;;6.75;2.60;;;5.50;87.90;;;;;;5013114;28;20018;-76
2021/01/04 00:20:06;;;;;;;5.05;2.17;;;5.50;88.00;;;;;;5013166;28;20033;-77
2021/01/04 00:22:38;;;;;;;6.38;2.30;;;5.50;88.00;;;;;;5022449;28;20017;-77
2021/01/04 00:25:26;;;;;;;;;;;5.50;88.10;;;;;;5016549;28;20022;-77
2021/01/04 00:27:59;;;;;;;5.70;2.58;;;5.50;88.00;;;;;;5018909;28;19902;-77
2021/01/04 00:30:30;;;;;;;5.03;2.75;;;5.50;88.00;;;;;;5019396;28;20030;-78
2021/01/04 00:33:01;;;;;;;8.02;2.75;;;5.50;87.90;;;;;;5011424;28;20018;-78
2021/01/04 00:35:27;;;;;;;6.03;2.38;;;5.60;88.00;;;;;;5012717;28;20067;-78
2021/01/04 00:38:27;;;;;;;6.07;2.60;;;5.60;87.90;;;;;;5016625;28;20104;-78
2021/01/04 00:41:18;;;;;;;6.35;2.88;;;5.60;87.90;;;;;;5016063;28;20125;-78
2021/01/04 00:43:48;;;;;;;7.22;2.88;;;5.60;87.90;;;;;;5015758;28;20101;-78
2021/01/04 00:46:29;;;;;;;6.40;3.03;;;5.60;87.90;;;;;;5033396;28;20048;-78
2021/01/04 00:49:20;;;;;;;6.67;2.50;;;5.60;87.80;;;;;;5018254;28;20044;-78
2021/01/04 00:51:56;;;;;;;6.32;2.33;;;5.60;87.80;;;;;;5017583;28;20268;-78
2021/01/04 00:54:37;;;;;;;5.75;2.50;;;5.60;87.80;;;;;;5035759;28;20071;-78
2021/01/04 00:57:21;;;;;;;6.38;2.53;;;5.60;87.90;;;;;;5035943;28;20108;-77
2021/01/04 01:00:05;;;;;;;6.25;2.70;;;5.60;87.90;;;;;;5017518;28;20075;-78
2021/01/04 01:02:46;;;;;;;8.00;2.97;;;5.60;87.90;;;;;;5034912;28;20053;-76
2021/01/04 01:05:31;;;;;;;5.97;3.45;;;5.60;88.00;;;;;;5017385;28;20025;-78
2021/01/04 01:08:05;;;;;;;5.22;2.63;;;5.60;88.10;;;;;;5017632;28;20024;-78
2021/01/04 01:10:37;;;;;;;9.88;2.28;;;5.50;88.00;;;;;;5017240;28;20028;-78
2021/01/04 01:13:21;;;;;;;4.80;2.22;;;5.50;88.10;;;;;;5035434;28;20452;-78
2021/01/04 01:16:05;;;;;;;7.45;2.45;;;5.50;88.20;;;;;;5034993;28;20056;-78
2021/01/04 01:18:35;;;;;;;5.63;2.47;;;5.50;88.20;;;;;;5034874;28;20036;-78
2021/01/04 01:21:05;;;;;;;4.40;2.10;;;5.50;88.30;;;;;;5035244;28;20452;-78
2021/01/04 01:23:31;;;;;;;8.70;2.92;;;5.40;88.50;;;;;;5017115;28;20013;-78
2021/01/04 01:26:15;;;;;;;6.50;2.88;;;5.40;88.70;;;;;;5017378;28;20025;-78
2021/01/04 01:29:03;;;;;;;7.80;2.33;;;5.50;88.90;;;;;;5034359;28;20017;-78
2021/01/04 01:32:06;;;;;;;5.93;2.88;;;5.50;88.60;;;;;;5016684;28;20531;-78
2021/01/04 01:34:43;;;;;;;6.53;2.42;;;5.50;88.60;;;;;;5034795;28;20070;-78
2021/01/04 01:37:24;;;;;;;5.68;2.08;;;5.50;88.60;;;;;;5034676;28;20478;-78
2021/01/04 01:40:11;;;;;;;6.68;2.33;;;5.50;88.70;;;;;;5016483;28;20021;-79
2021/01/04 01:42:55;;;;;;;7.95;2.60;;;5.50;88.90;;;;;;5016705;28;20074;-78
2021/01/04 01:45:48;;;;;;;4.90;2.28;;;5.50;88.90;;;;;;5017082;28;20096;-77
2021/01/04 01:48:45;;;;;;;5.05;1.98;;;5.50;88.70;;;;;;5033384;28;20100;-78
2021/01/04 01:51:44;;;;;;;3.72;2.20;;;5.50;88.80;;;;;;5016936;28;20041;-78
2021/01/04 01:54:42;;;;;;;4.68;2.38;;;5.50;88.70;;;;;;5034611;28;20029;-78
2021/01/04 01:57:24;;;;;;;5.55;2.15;;;5.50;88.80;;;;;;5016208;28;20125;-78
2021/01/04 02:00:05;;;;;;;5.88;2.28;;;5.40;88.90;;;;;;5016390;28;20025;-78
2021/01/04 02:02:50;;;;;;;4.97;2.75;;;5.40;89.10;;;;;;5034265;28;20101;-79
2021/01/04 02:06:04;;;;;;;7.20;2.90;;;5.40;89.20;;;;;;5034405;28;20029;-78
2021/01/04 02:08:35;;;;;;;6.18;2.78;;;5.30;89.40;;;;;;5034293;28;20455;-82
2021/01/04 02:11:14;;;;;;;4.68;2.55;;;5.30;89.60;;;;;;5034512;28;20071;-78
2021/01/04 02:14:12;;;;;;;6.47;2.55;;;5.30;89.70;;;;;;5016110;28;20024;-78
2021/01/04 02:16:54;;;;;;;3.75;2.35;;;5.30;89.60;;;;;;5033408;28;20084;-78
2021/01/04 02:19:22;;;;;;;;;;;5.30;89.70;;;;;;5016842;28;20113;-78
2021/01/04 02:21:57;;;;;;;6.10;2.47;;;5.30;89.60;;;;;;5016101;28;19901;-78
2021/01/04 02:24:26;;;;;;;4.25;2.38;;;5.30;89.40;;;;;;5033852;28;20052;-79
2021/01/04 02:27:20;;;;;;;5.47;2.10;;;5.40;89.40;;;;;;5035367;28;20082;-78
2021/01/04 02:29:46;;;;;;;3.42;2.05;;;5.40;89.30;;;;;;5017715;28;20089;-78
2021/01/04 02:32:12;;;;;;;4.50;2.20;;;5.40;89.40;;;;;;5035153;28;20455;-78
2021/01/04 02:34:41;;;;;;;4.50;2.65;;;5.30;89.50;;;;;;5016714;28;20113;-78
2021/01/04 02:37:08;;;;;;;4.22;1.90;;;5.30;89.70;;;;;;5037035;28;20028;-77
2021/01/04 02:39:53;;;;;;;4.72;2.17;;;5.30;89.80;;;;;;5041069;28;20017;-78
2021/01/04 02:42:23;;;;;;;3.95;1.70;;;5.30;89.90;;;;;;5037196;28;20044;-78
2021/01/04 02:44:49;;;;;;;3.53;2.05;;;5.30;89.90;;;;;;5041376;28;20014;-78
2021/01/04 02:47:46;;;;;;;6.85;2.30;;;5.20;89.90;;;;;;5034488;28;20025;-78
2021/01/04 02:50:28;;;;;;;4.15;1.88;;;5.20;90.00;;;;;;5033760;28;20022;-77
2021/01/04 02:53:35;;;;;;;3.78;2.08;;;5.20;90.00;;;;;;5033295;28;20032;-78
2021/01/04 02:56:35;;;;;;;5.90;2.28;;;5.20;90.10;;;;;;5015260;28;20022;-78
2021/01/04 02:59:14;;;;;;;6.75;2.72;;;5.10;90.10;;;;;;5033055;28;20104;-77
2021/01/04 03:01:57;;;;;;;8.00;2.28;;;5.00;90.20;;;;;;5015425;28;20023;-78
2021/01/04 03:04:25;;;;;;;3.72;1.83;;;5.00;90.30;;;;;;5015743;28;20025;-78
2021/01/04 03:07:00;;;;;;;4.15;2.08;;;5.00;90.30;;;;;;5014913;28;20058;-78
2021/01/04 03:09:32;;;;;;;5.78;2.00;;;5.10;90.30;;;;;;5015454;28;20021;-78
2021/01/04 03:11:58;;;;;;;;;;;5.10;90.30;;;;;;5015252;28;20029;-78
2021/01/04 03:14:24;;;;;;;6.00;2.05;;;5.00;90.20;;;;;;5032779;28;20385;-77
2021/01/04 03:17:07;;;;;;;5.07;2.15;;;5.10;90.20;;;;;;5032758;28;20173;-77
2021/01/04 03:19:36;;;;;;;4.55;1.92;;;5.10;90.20;;;;;;5033225;28;20028;-78
2021/01/04 03:22:08;;;;;;;2.83;2.00;;;5.10;90.20;;;;;;5015192;28;20414;-78
2021/01/04 03:24:34;;;;;;;3.45;1.90;;;5.10;90.30;;;;;;5033011;28;20024;-78
2021/01/04 03:27:10;;;;;;;5.47;2.05;;;5.00;90.40;;;;;;5032418;28;20017;-77
2021/01/04 03:29:36;;;;;;;5.60;2.30;;;5.00;90.50;;;;;;5032855;28;20477;-78
2021/01/04 03:32:02;;;;;;;5.40;2.47;;;5.10;90.50;;;;;;5015095;28;20044;-78
2021/01/04 03:34:27;;;;;;;4.55;2.05;;;5.10;90.50;;;;;;5015120;28;20017;-77
2021/01/04 03:36:53;;;;;;;5.88;1.90;;;5.10;90.40;;;;;;5032573;28;20065;-78
2021/01/04 03:39:18;;;;;;;6.45;2.53;;;5.10;90.40;;;;;;5014947;28;20025;-77
2021/01/04 03:41:44;;;;;;;3.85;2.20;;;5.10;90.40;;;;;;5032223;28;20025;-78
2021/01/04 03:44:10;;;;;;;5.25;1.95;;;5.20;90.20;;;;;;5032762;28;20022;-78
2021/01/04 03:46:36;;;;;;;3.75;2.08;;;5.10;90.50;;;;;;5014619;28;20095;-78
2021/01/04 03:49:02;;;;;;;5.68;2.17;;;5.00;90.50;;;;;;5014526;28;20430;-78
2021/01/04 03:51:27;;;;;;;3.60;1.90;;;5.00;90.60;;;;;;5032495;28;20029;-77
2021/01/04 03:53:53;;;;;;;4.78;2.33;;;5.00;90.70;;;;;;5032253;28;20405;-78
2021/01/04 03:56:20;;;;;;;2.45;1.60;;;5.00;90.70;;;;;;5014952;28;20371;-78
2021/01/04 03:58:46;;;;;;;4.55;1.88;;;4.90;90.70;;;;;;5014192;28;20035;-78
2021/01/04 04:01:13;;;;;;;4.65;2.30;;;5.00;90.70;;;;;;5015048;28;20022;-78
2021/01/04 04:03:38;;;;;;;4.13;2.00;;;5.00;90.70;;;;;;5014795;28;20029;-78
2021/01/04 04:06:04;;;;;;;4.55;1.88;;;5.00;90.60;;;;;;5032387;28;20017;-78
2021/01/04 04:08:30;;;;;;;5.03;1.70;;;5.00;90.50;;;;;;5032386;28;20467;-78
2021/01/04 04:10:56;;;;;;;3.63;1.73;;;5.10;90.50;;;;;;5016001;28;20336;-78
2021/01/04 04:13:21;;;;;;;2.53;1.33;;;5.00;90.50;;;;;;5036561;28;20074;-78
2021/01/04 04:15:48;;;;;;;5.28;1.85;;;5.00;90.60;;;;;;5018589;28;20336;-78
2021/01/04 04:18:13;;;;;;;6.22;2.28;;;5.00;90.60;;;;;;5036167;28;20022;-78
2021/01/04 04:20:39;;;;;;;3.58;1.95;;;5.00;90.60;;;;;;5015071;28;20021;-78
2021/01/04 04:23:05;;;;;;;4.65;2.00;;;5.00;90.50;;;;;;5016599;28;20068;-78
2021/01/04 04:25:30;;;;;;;4.93;2.00;;;5.00;90.60;;;;;;5015347;28;20028;-78
2021/01/04 04:27:56;;;;;;;5.10;1.92;;;5.00;90.60;;;;;;5015720;28;20473;-78
2021/01/04 04:30:24;;;;;;;3.45;1.88;;;5.10;90.60;;;;;;5016287;28;20021;-77
2021/01/04 04:32:59;;;;;;;2.33;1.40;;;5.10;90.60;;;;;;5015973;28;20026;-78
2021/01/04 04:35:27;;;;;;;3.92;1.92;;;5.10;90.60;;;;;;4998416;28;20108;-78
2021/01/04 04:37:54;;;;;;;5.00;1.75;;;5.00;90.60;;;;;;5015672;28;20456;-77
2021/01/04 04:40:26;;;;;;;3.55;2.33;;;5.10;90.60;;;;;;5015358;28;20058;-78
2021/01/04 04:42:57;;;;;;;3.97;1.88;;;5.10;90.60;;;;;;5015700;28;20033;-78
2021/01/04 04:45:23;;;;;;;3.75;1.60;;;5.10;90.50;;;;;;5015251;28;20108;-77
2021/01/04 04:48:10;;;;;;;3.58;1.40;;;5.10;90.50;;;;;;4999764;28;20367;-77
2021/01/04 04:50:38;;;;;;;3.25;1.55;;;5.20;90.50;;;;;;5032520;28;20030;-77
2021/01/04 04:53:33;;;;;;;4.53;1.88;;;5.20;90.50;;;;;;5003704;28;20025;-76
2021/01/04 04:56:12;;;;;;;5.28;1.70;;;5.20;90.50;;;;;;4999692;28;20367;-77
2021/01/04 04:58:53;;;;;;;4.90;1.98;;;5.20;90.50;;;;;;4997976;28;20034;-76
2021/01/04 05:01:50;;;;;;;4.13;1.77;;;5.10;90.50;;;;;;4998363;28;20014;-77
2021/01/04 05:04:27;;;;;;;2.50;1.95;;;5.10;90.60;;;;;;4998424;28;20026;-78
2021/01/04 05:06:59;;;;;;;6.65;1.95;;;5.10;90.60;;;;;;4998304;28;20072;-77
2021/01/04 05:09:51;;;;;;;2.55;1.70;;;5.00;90.70;;;;;;5016834;28;20153;-77
2021/01/04 05:12:17;;;;;;;3.25;1.88;;;5.00;90.70;;;;;;5020057;28;20173;-77
2021/01/04 05:14:57;;;;;;;2.78;1.55;;;5.00;90.80;;;;;;5006887;28;20026;-75
2021/01/04 05:17:58;;;;;;;5.13;2.28;;;5.00;90.70;;;;;;5015656;28;20064;-76
2021/01/04 05:20:45;;;;;;;4.10;1.95;;;5.00;90.70;;;;;;5001570;28;20037;-76
2021/01/04 05:23:14;;;;;;;5.07;2.58;;;5.00;90.80;;;;;;4997694;28;20030;-77
2021/01/04 05:26:11;;;;;;;4.68;2.03;;;5.00;90.70;;;;;;5015387;28;20025;-77
2021/01/04 05:29:00;;;;;;;5.10;2.53;;;5.00;90.70;;;;;;5015232;28;20098;-77
2021/01/04 05:32:00;;;;;;;3.65;2.20;;;5.10;90.70;;;;;;5015076;28;20079;-77
2021/01/04 05:34:40;;;;;;;5.80;2.50;;;5.10;90.70;;;;;;5015303;28;20021;-77
2021/01/04 05:37:37;;;;;;;5.50;2.13;;;5.10;90.90;;;;;;5014981;28;20438;-77
2021/01/04 05:40:21;;;;;;;3.03;2.00;;;5.00;90.70;;;;;;5014784;28;20029;-77
2021/01/04 05:43:18;;;;;;;5.18;2.15;;;5.00;90.80;;;;;;5029737;28;20022;-82
2021/01/04 05:46:07;;;;;;;4.78;2.33;;;5.00;90.80;;;;;;5015066;28;20046;-77
2021/01/04 05:48:42;;;;;;;5.43;1.85;;;5.00;90.80;;;;;;5014905;28;20025;-77
2021/01/04 05:51:37;;;;;;;3.92;1.63;;;5.00;90.80;;;;;;4997343;28;20030;-77
2021/01/04 05:54:03;;;;;;;6.32;2.55;;;5.10;90.80;;;;;;5013089;28;20025;-78
2021/01/04 05:56:31;;;;;;;4.65;2.10;;;5.00;90.80;;;;;;5014739;28;20022;-78
2021/01/04 05:59:12;;;;;;;7.43;2.28;;;5.00;90.80;;;;;;5013039;28;20021;-78
2021/01/04 06:01:43;;;;;;;4.57;1.88;;;5.00;90.80;;;;;;5013763;28;20021;-77
2021/01/04 06:04:24;;;;;;;5.38;2.53;;;5.00;90.80;;;;;;5012900;28;20026;-77
2021/01/04 06:06:53;;;;;;;4.15;2.28;;;5.00;90.80;;;;;;5014071;28;20064;-78
2021/01/04 06:09:19;;;;;;;7.57;2.63;;;5.00;90.80;;;;;;5003812;28;20099;-77
2021/01/04 06:11:58;;;;;;;3.60;2.08;;;5.00;90.90;;;;;;5034393;28;20014;-77
2021/01/04 06:14:27;;;;;;;4.45;2.15;;;5.00;90.90;;;;;;5016444;28;20067;-78
2021/01/04 06:17:26;;;;;;;5.55;1.92;;;5.00;90.90;;;;;;5016142;28;20340;-77
2021/01/04 06:19:54;;;;;;;5.10;2.20;;;5.00;90.90;;;;;;5033688;28;20029;-78
2021/01/04 06:22:28;;;;;;;4.68;1.60;;;5.00;90.90;;;;;;5015933;28;20024;-77
2021/01/04 06:25:05;;;;;;;6.03;2.60;;;5.00;90.90;;;;;;5033715;28;20018;-78
2021/01/04 06:27:38;;;;;;;3.03;1.65;;;5.00;90.90;;;;;;5034157;28;20025;-78
2021/01/04 06:30:26;;;;;;;4.38;1.73;;;5.00;90.90;;;;;;5033351;28;20057;-78
2021/01/04 06:32:52;;;;;;;3.53;1.63;;;5.00;90.90;;;;;;5033044;28;20018;-84
2021/01/04 06:35:31;;;;;;;4.38;1.80;;;5.00;91.00;;;;;;5035123;28;20085;-80
2021/01/04 06:38:29;;;;;;;4.70;1.80;;;5.00;91.00;;;;;;5038027;28;20028;-77
2021/01/04 06:40:56;;;;;;;4.57;1.98;;;5.00;91.00;;;;;;5015334;28;20014;-76
2021/01/04 06:43:32;;;;;;;4.57;2.42;;;5.00;91.00;;;;;;5033758;28;20100;-77
2021/01/04 06:46:23;;;;;;;2.83;1.98;;;5.00;91.00;;;;;;5032863;28;20076;-78
2021/01/04 06:48:54;;;;;;;8.73;2.10;;;5.00;91.00;;;;;;5033378;28;20421;-78
2021/01/04 06:51:52;;;;;;;4.25;1.90;;;5.00;90.90;;;;;;5033380;28;20053;-78
2021/01/04 06:54:42;;;;;;;5.38;2.13;;;5.00;90.90;;;;;;5016410;28;20067;-78
2021/01/04 06:57:46;;;;;;;4.65;1.73;;;5.10;90.90;;;;;;5038881;28;20017;-79
2021/01/04 07:00:46;;;;;;;4.63;1.85;;;5.10;90.80;;;;;;5017891;28;20092;-78
2021/01/04 07:03:44;;;;;;;5.45;2.47;;;5.00;90.80;;;;;;5044932;28;20026;-78
2021/01/04 07:06:18;;;;;;;5.22;3.05;;;5.00;90.80;;;;;;5033392;28;20024;-79
2021/01/04 07:09:05;;;;;;;6.43;2.08;;;4.90;90.90;;;;;;5033594;28;20036;-79
2021/01/04 07:12:23;;;;;;;6.72;2.88;;;4.90;90.90;;;;;;5016013;28;20048;-77
2021/01/04 07:15:05;;;;;;;7.13;2.42;;;5.00;90.90;;;;;;4972825;28;20457;-78
2021/01/04 07:18:09;;;;;;;8.20;2.75;;;5.00;90.90;;;;;;5034134;28;20103;-78
2021/01/04 07:21:00;;;;;;;7.70;3.05;;;5.00;90.80;;;;;;5031932;28;20075;-78
2021/01/04 07:23:50;;;;;;;10.07;3.40;;;5.10;90.80;;;;;;5015992;28;20473;-78
2021/01/04 07:26:33;;;;;;;6.43;2.03;;;5.10;90.80;;;;;;5015521;28;20534;-79
2021/01/04 07:29:28;;;;;;;7.38;2.95;;;5.10;90.80;;;;;;5033759;28;20021;-78
2021/01/04 07:31:58;;;;;;;8.55;2.95;;;5.10;90.70;;;;;;5033419;28;20129;-78
2021/01/04 07:34:36;;;;;;;5.17;2.40;;;5.10;90.80;;;;;;5033771;28;20018;-77
2021/01/04 07:37:20;;;;;;;6.15;1.98;;;5.10;90.80;;;;;;5033753;28;20104;-78
2021/01/04 07:40:05;;;;;;;8.00;2.60;;;5.10;90.80;;;;;;5015733;28;20462;-77
2021/01/04 07:42:45;;;;;;;5.95;2.17;;;5.10;90.80;;;;;;5015708;28;20348;-78
2021/01/04 07:45:48;;;;;;;5.82;2.83;;;5.10;90.80;;;;;;5015473;28;20470;-78
2021/01/04 07:48:56;;;;;;;5.07;2.20;;;5.10;90.90;;;;;;4992008;28;20065;-77
2021/01/04 07:51:31;;;;;;;6.57;3.05;;;5.00;90.90;;;;;;4992911;28;20109;-77
2021/01/04 07:54:26;;;;;;;8.02;2.67;;;5.10;90.90;;;;;;4994099;28;20018;-88
2021/01/04 07:57:36;;;;;;;5.75;2.33;;;5.10;90.90;;;;;;4994221;28;20027;-78
2021/01/04 08:00:44;;;;;;;4.43;2.08;;;5.10;90.80;;;;;;4981870;28;20113;-79
2021/01/04 08:03:30;;;;;;;7.95;2.63;;;5.10;90.80;;;;;;4936192;29;20388;-79
2021/01/04 08:06:18;;;;;;;5.18;2.35;;;5.10;90.80;;;;;;5007373;28;20026;-79
2021/01/04 08:08:47;;;;;;;5.13;2.22;;;5.10;90.80;;;;;;4993946;28;20022;-79
2021/01/04 08:11:50;;;;;;;9.32;3.20;;;5.10;90.80;;;;;;4994191;28;20420;-78
2021/01/04 08:14:30;;;;;;;6.20;2.92;;;5.10;90.80;;;;;;4995465;28;20022;-77
2021/01/04 08:17:15;;;;;;;4.78;2.58;;;5.20;90.80;;;;;;4994083;28;20053;-79
2021/01/04 08:19:44;;;;;;;4.63;2.22;;;5.20;90.80;;;;;;4994202;28;20027;-76
2021/01/04 08:22:34;;;;;;;7.05;2.28;;;5.20;90.80;;;;;;4993063;28;20057;-78
2021/01/04 08:25:32;;;;;;;5.63;2.33;;;5.20;90.80;;;;;;4992732;28;20585;-78
2021/01/04 08:28:17;;;;;;;9.63;2.97;;;5.30;90.80;;;;;;4991236;28;20038;-78
2021/01/04 08:30:56;;;;;;;8.88;3.08;;;5.30;91.00;;;;;;4991989;28;20033;-78
2021/01/04 08:33:46;;;;;;;6.53;2.80;;;5.30;90.70;;;;;;4993344;28;20461;-78
2021/01/04 08:36:25;;;;;;;9.43;3.22;;;5.30;90.70;;;;;;4991660;28;20019;-79
2021/01/04 08:39:03;;;;;;;6.95;2.55;;;5.30;90.80;;;;;;4992700;28;20089;-78
2021/01/04 08:41:31;;;;;;;6.55;2.20;;;5.30;90.80;;;;;;4993574;28;20375;-78
2021/01/04 08:43:57;;;;;;;7.35;2.60;;;5.30;90.80;;;;;;4993404;28;20397;-78
2021/01/04 08:46:23;;;;;;;5.60;2.53;;;5.30;90.70;;;;;;5008742;28;20049;-78
2021/01/04 08:48:50;;;;;;;5.25;2.42;;;5.40;90.70;;;;;;5015224;28;20455;-78
2021/01/04 08:51:26;;;;;;;7.75;2.85;;;5.40;90.70;;;;;;5014588;28;20030;-78
2021/01/04 08:54:11;;;;;;;7.13;3.20;;;5.40;90.80;;;;;;5015717;28;20017;-78
2021/01/04 08:56:51;;;;;;;7.32;2.58;;;5.40;90.80;;;;;;5034885;28;20072;-79
2021/01/04 08:59:23;;;;;;;7.95;2.63;;;5.40;90.80;;;;;;5019920;28;20455;-76
2021/01/04 09:02:36;;;;;;;6.47;2.72;;;5.40;90.80;;;;;;5023230;28;20052;-76
2021/01/04 09:05:06;;;;;;;4.85;2.30;;;5.40;90.80;;;;;;5023005;28;20067;-87
2021/01/04 09:07:32;;;;;;;5.30;2.22;;;5.30;90.80;;;;;;5041838;28;20022;-78
2021/01/04 09:10:22;;;;;;;5.65;2.50;;;5.40;90.90;;;;;;5050890;28;20108;-77
2021/01/04 09:12:54;;;;;;;5.35;2.22;;;5.40;90.90;;;;;;5040559;28;20033;-77
2021/01/04 09:15:20;;;;;;;7.20;2.42;;;5.30;90.90;;;;;;5017868;28;20438;-77
2021/01/04 09:18:00;;;;;;;5.85;2.47;;;5.30;90.90;;;;;;5035734;28;20060;-79
2021/01/04 09:20:47;;;;;;;5.32;2.60;;;5.40;90.90;;;;;;5036211;28;20037;-78
2021/01/04 09:23:19;;;;;;;5.50;2.53;;;5.40;90.90;;;;;;5018230;28;20029;-79
2021/01/04 09:25:52;;;;;;;6.07;2.80;;;5.40;90.90;;;;;;5018161;28;20144;-78
2021/01/04 09:28:20;;;;;;;10.07;2.88;;;5.40;90.90;;;;;;5017028;28;20025;-79
2021/01/04 09:30:47;;;;;;;8.50;2.80;;;5.40;90.90;;;;;;5035320;28;20029;-78
2021/01/04 09:33:17;;;;;;;6.78;2.63;;;5.40;90.80;;;;;;5017715;28;20029;-78
2021/01/04 09:35:44;;;;;;;6.15;2.63;;;5.40;90.90;;;;;;5036059;28;20032;-78
2021/01/04 09:38:25;;;;;;;8.75;3.15;;;5.40;90.90;;;;;;5017905;28;20020;-79
2021/01/04 09:40:52;;;;;;;;;;;5.50;91.00;;;;;;5036074;28;20026;-78
2021/01/04 09:43:25;;;;;;;5.50;2.53;;;5.40;90.90;;;;;;5035744;28;19998;-78
2021/01/04 09:45:52;;;;;;;4.35;2.20;;;5.40;91.00;;;;;;5035735;28;20017;-78
2021/01/04 09:48:31;;;;;;;5.80;3.22;;;5.40;91.00;;;;;;5035284;28;20459;-78
2021/01/04 09:51:02;;;;;;;4.72;2.08;;;5.50;91.00;;;;;;5035819;28;20033;-79
2021/01/04 09:53:34;;;;;;;8.88;2.53;;;5.40;91.10;;;;;;5035358;28;20049;-78
2021/01/04 09:56:04;;;;;;;5.25;2.03;;;5.40;91.10;;;;;;5017575;28;20316;-78
2021/01/04 09:58:31;;;;;;;20.97;3.83;;;5.50;91.10;;;;;;5017444;28;20018;-77
2021/01/04 10:01:23;;;;;;;5.55;2.47;;;5.50;91.10;;;;;;5034761;28;20029;-78
2021/01/04 10:03:58;;;;;;;7.28;2.78;;;5.60;91.00;;;;;;5032790;28;20051;-78
2021/01/04 10:06:29;;;;;;;7.97;2.92;;;5.60;91.00;;;;;;5017587;28;20355;-78
2021/01/04 10:08:55;;;;;;;6.28;2.45;;;5.60;91.00;;;;;;5017095;28;20379;-78
2021/01/04 10:11:22;;;;;;;6.00;3.08;;;5.60;91.00;;;;;;5039333;28;20017;-78
2021/01/04 10:13:50;;;;;;;5.38;2.45;;;5.60;91.10;;;;;;5042562;28;20167;-77
2021/01/04 10:16:24;;;;;;;6.28;2.55;;;5.60;91.10;;;;;;5027797;28;20021;-78
2021/01/04 10:19:01;;;;;;;6.10;2.63;;;5.60;91.10;;;;;;5049909;28;20025;-78
2021/01/04 10:21:31;;;;;;;6.90;2.42;;;5.70;91.10;;;;;;5020525;28;20025;-77
2021/01/04 10:24:13;;;;;;;4.57;2.25;;;5.70;91.00;;;;;;5017456;28;20010;-78
2021/01/04 10:26:40;;;;;;;6.45;2.30;;;5.70;91.00;;;;;;5017884;28;20018;-78
2021/01/04 10:29:13;;;;;;;5.35;1.98;;;5.70;91.00;;;;;;5016640;28;20022;-79
2021/01/04 10:31:39;;;;;;;8.38;2.55;;;5.70;91.00;;;;;;5034666;28;20072;-78
2021/01/04 10:34:17;;;;;;;7.32;3.00;;;5.70;91.10;;;;;;5017173;28;20021;-79
2021/01/04 10:37:01;;;;;;;6.32;2.72;;;5.70;91.10;;;;;;5034912;28;20068;-78
2021/01/04 10:39:38;;;;;;;6.15;2.47;;;5.70;91.10;;;;;;5033795;28;20068;-79
2021/01/04 10:42:11;;;;;;;6.68;2.33;;;5.70;91.20;;;;;;5034254;28;20028;-79
2021/01/04 10:44:38;;;;;;;5.90;2.25;;;5.60;91.20;;;;;;5016541;28;20018;-78
2021/01/04 10:47:15;;;;;;;4.85;2.38;;;5.60;91.20;;;;;;5016205;28;20475;-78
2021/01/04 10:49:42;;;;;;;5.45;2.25;;;5.70;91.20;;;;;;5015979;28;20045;-78
2021/01/04 10:52:20;;;;;;;6.25;2.22;;;5.70;91.20;;;;;;5034289;28;20051;-78
2021/01/04 10:54:45;;;;;;;6.35;2.22;;;5.70;91.20;;;;;;5034349;28;20025;-79
2021/01/04 10:57:35;;;;;;;5.32;2.28;;;5.70;91.20;;;;;;5016302;28;20013;-83
2021/01/04 11:00:13;;;;;;;5.35;2.50;;;5.60;91.20;;;;;;5016918;28;20076;-78
2021/01/04 11:02:44;;;;;;;5.53;2.35;;;5.60;91.20;;;;;;5016530;28;20040;-79
2021/01/04 11:05:12;;;;;;;4.22;2.13;;;5.60;91.20;;;;;;5017022;28;20105;-79
2021/01/04 11:07:38;;;;;;;4.70;1.70;;;5.60;91.20;;;;;;5034244;28;20017;-78
2021/01/04 11:10:15;;;;;;;5.65;2.03;;;5.60;91.20;;;;;;5018773;28;20025;-78
2021/01/04 11:12:50;;;;;;;4.60;1.95;;;5.60;91.30;;;;;;5024920;28;20079;-78
2021/01/04 11:15:34;;;;;;;5.03;2.00;;;5.70;91.30;;;;;;5035871;28;20067;-78
2021/01/04 11:18:06;;;;;;;5.10;1.60;;;5.70;91.20;;;;;;5045509;28;20026;-78
2021/01/04 11:20:32;;;;;;;6.60;2.38;;;5.60;91.20;;;;;;5016463;28;20080;-77
2021/01/04 11:23:13;;;;;;;5.15;1.77;;;5.60;91.20;;;;;;5034958;28;20430;-78
2021/01/04 11:25:45;;;;;;;3.95;2.10;;;5.60;91.30;;;;;;5033998;28;20029;-78
2021/01/04 11:28:11;;;;;;;7.15;1.80;;;5.60;91.30;;;;;;5015820;28;20020;-78
2021/01/04 11:30:37;;;;;;;3.13;1.52;;;5.60;91.40;;;;;;5034073;28;20120;-78
2021/01/04 11:33:03;;;;;;;4.65;2.35;;;5.60;91.40;;;;;;5016231;28;20025;-78
2021/01/04 11:35:30;;;;;;;6.90;2.95;;;5.60;91.40;;;;;;5033813;28;20028;-78
2021/01/04 11:37:57;;;;;;;5.10;2.20;;;5.60;91.40;;;;;;5016089;28;20017;-78
2021/01/04 11:40:24;;;;;;;5.38;2.30;;;5.60;91.30;;;;;;5015731;28;20021;-78
2021/01/04 11:42:49;;;;;;;5.15;2.03;;;5.60;91.30;;;;;;5032455;28;20017;-78
2021/01/04 11:45:19;;;;;;;6.15;2.22;;;5.70;91.30;;;;;;5015572;28;20025;-80
2021/01/04 11:47:45;;;;;;;5.30;2.05;;;5.70;91.30;;;;;;5033364;28;20471;-78
2021/01/04 11:50:12;;;;;;;2.85;1.50;;;5.70;91.20;;;;;;5033611;28;20103;-77
2021/01/04 11:52:39;;;;;;;8.27;2.08;;;5.70;91.20;;;;;;5033506;28;20464;-78
2021/01/04 11:55:08;;;;;;;4.22;1.60;;;5.70;91.50;;;;;;5032879;28;20022;-78
2021/01/04 11:57:34;;;;;;;5.65;2.10;;;5.70;91.30;;;;;;5032339;28;20013;-78
2021/01/04 11:59:59;;;;;;;4.32;1.70;;;5.70;91.40;;;;;;5032679;28;20348;-78
2021/01/04 12:02:25;;;;;;;5.30;2.08;;;5.70;91.40;;;;;;5032387;28;20345;-78
2021/01/04 12:04:51;;;;;;;3.78;1.70;;;5.60;91.40;;;;;;5015006;28;20052;-78
2021/01/04 12:07:18;;;;;;;5.00;1.58;;;5.60;91.40;;;;;;5014621;28;20539;-79
2021/01/04 12:09:44;;;;;;;3.20;1.35;;;5.60;91.40;;;;;;5032631;28;20103;-78
2021/01/04 12:12:11;;;;;;;4.15;2.10;;;5.60;91.40;;;;;;5032674;28;20336;-78
2021/01/04 12:14:36;;;;;;;3.05;1.40;;;5.60;91.40;;;;;;5014614;28;20021;-78
2021/01/04 12:17:07;;;;;;;4.10;1.65;;;5.60;91.40;;;;;;5014932;28;20451;-78
2021/01/04 12:19:34;;;;;;;4.60;1.85;;;5.60;91.40;;;;;;5014598;28;20018;-78
2021/01/04 12:22:12;;;;;;;3.50;1.55;;;5.60;91.40;;;;;;5032747;28;20024;-78
2021/01/04 12:24:38;;;;;;;4.68;1.90;;;5.60;91.40;;;;;;5032099;28;20146;-78
2021/01/04 12:27:06;;;;;;;2.85;1.58;;;5.60;91.40;;;;;;5032449;28;20040;-78
2021/01/04 12:29:33;;;;;;;2.33;1.42;;;5.60;91.40;;;;;;5032072;28;20594;-78
2021/01/04 12:32:00;;;;;;;3.95;1.92;;;5.60;91.60;;;;;;5016038;28;20032;-78
2021/01/04 12:34:25;;;;;;;4.00;2.10;;;5.60;91.30;;;;;;5018349;28;20021;-78
2021/01/04 12:36:51;;;;;;;5.25;1.92;;;5.70;91.30;;;;;;5018653;28;20033;-78
2021/01/04 12:39:17;;;;;;;3.50;1.70;;;5.60;91.30;;;;;;5019105;28;20447;-79
2021/01/04 12:41:43;;;;;;;2.88;1.42;;;5.60;91.30;;;;;;5018668;28;20028;-78
2021/01/04 12:44:10;;;;;;;6.22;2.00;;;5.60;91.40;;;;;;5036729;28;20025;-78
2021/01/04 12:46:46;;;;;;;4.47;1.85;;;5.60;91.70;;;;;;5036551;28;20532;-79
2021/01/04 12:49:13;;;;;;;3.72;1.80;;;5.60;91.40;;;;;;5019076;28;20080;-78
2021/01/04 12:51:44;;;;;;;4.30;2.00;;;5.70;91.40;;;;;;5036206;28;20502;-78
2021/01/04 12:54:11;;;;;;;3.92;1.67;;;5.70;91.30;;;;;;5036992;28;20466;-78
2021/01/04 12:56:42;;;;;;;5.97;2.28;;;5.60;91.30;;;;;;5018490;28;20013;-78
2021/01/04 12:59:07;;;;;;;5.03;2.22;;;5.60;91.30;;;;;;5018716;28;20021;-78
2021/01/04 13:01:38;;;;;;;4.25;1.40;;;5.70;91.60;;;;;;5018303;28;20044;-79
2021/01/04 13:04:03;;;;;;;4.28;2.10;;;5.70;91.30;;;;;;5036726;28;20431;-79
2021/01/04 13:06:29;;;;;;;4.13;1.73;;;5.60;91.30;;;;;;5036350;28;20027;-78
2021/01/04 13:08:55;;;;;;;3.10;1.42;;;5.60;91.30;;;;;;5018237;28;20033;-79
2021/01/04 13:11:20;;;;;;;3.63;1.98;;;5.60;91.40;;;;;;5036270;28;20103;-90
2021/01/04 13:13:46;;;;;;;4.18;1.60;;;5.60;91.40;;;;;;5036626;28;20041;-80
2021/01/04 13:16:11;;;;;;;5.03;2.38;;;5.50;91.40;;;;;;5019676;28;20348;-80
2021/01/04 13:18:37;;;;;;;2.97;1.45;;;5.60;91.40;;;;;;5036907;28;20029;-79
2021/01/04 13:21:03;;;;;;;3.78;1.80;;;5.50;91.40;;;;;;5033289;28;20040;-77
2021/01/04 13:23:28;;;;;;;4.00;2.30;;;5.60;91.40;;;;;;5043653;28;20052;-78
2021/01/04 13:25:54;;;;;;;2.08;1.42;;;5.60;91.30;;;;;;5028595;28;20014;-78
2021/01/04 13:28:20;;;;;;;4.20;2.22;;;5.60;91.20;;;;;;5025280;28;20071;-78
2021/01/04 13:30:45;;;;;;;4.10;1.77;;;5.60;91.20;;;;;;5027845;28;20034;-78
2021/01/04 13:33:11;;;;;;;3.25;1.73;;;5.60;91.30;;;;;;5023439;28;20378;-78
2021/01/04 13:35:37;;;;;;;1.67;1.58;;;5.60;91.30;;;;;;5018318;28;20025;-78
2021/01/04 13:38:05;;;;;;;3.90;1.63;;;5.60;91.30;;;;;;5018350;28;20021;-78
2021/01/04 13:40:30;;;;;;;3.58;1.77;;;5.50;91.30;;;;;;5035589;28;20045;-78
2021/01/04 13:42:56;;;;;;;4.95;1.92;;;5.50;91.30;;;;;;5017419;28;20126;-78
2021/01/04 13:45:22;;;;;;;2.15;1.20;;;5.50;91.30;;;;;;5017900;28;20018;-77